createdAt,value
2023-12-20T00:01:51.054Z,4.03
2023-12-20T00:04:19.400Z,4.13
2023-12-20T00:06:48.019Z,3.80
2023-12-20T00:09:16.264Z,4.35
2023-12-20T00:11:44.487Z,4.10
2023-12-20T00:14:12.985Z,4.03
2023-12-20T00:16:41.063Z,4.03
2023-12-20T00:19:09.804Z,4.50
2023-12-20T00:21:38.290Z,4.05
2023-12-20T00:24:07.271Z,3.83
2023-12-20T00:26:35.962Z,3.63
2023-12-20T00:29:04.195Z,3.42
2023-12-20T00:31:32.232Z,3.33
2023-12-20T00:34:00.747Z,3.20
2023-12-20T00:36:30.479Z,3.42
2023-12-20T00:38:59.130Z,3.30
2023-12-20T00:41:27.535Z,3.20
2023-12-20T00:43:55.607Z,3.22
2023-12-20T00:46:24.363Z,3.10
2023-12-20T00:48:53.520Z,3.38
2023-12-20T00:51:24.157Z,3.00
2023-12-20T00:53:57.026Z,2.80
2023-12-20T00:56:26.479Z,2.78
2023-12-20T00:58:55.814Z,2.88
2023-12-20T01:01:24.566Z,2.50
2023-12-20T01:03:53.505Z,2.30
2023-12-20T01:06:22.002Z,2.20
2023-12-20T01:08:50.681Z,2.30
2023-12-20T01:11:21.578Z,2.50
2023-12-20T01:13:49.673Z,2.05
2023-12-20T01:16:20.687Z,2.40
2023-12-20T01:18:49.226Z,2.40
2023-12-20T01:21:17.260Z,2.33
2023-12-20T01:23:45.724Z,2.13
2023-12-20T01:26:16.999Z,2.40
2023-12-20T01:28:45.199Z,2.40
2023-12-20T01:31:13.475Z,2.20
2023-12-20T01:33:42.084Z,2.28
2023-12-20T01:36:11.490Z,2.20
2023-12-20T01:38:40.578Z,2.10
2023-12-20T01:41:08.758Z,2.43
2023-12-20T01:43:44.530Z,2.53
2023-12-20T01:46:19.504Z,2.60
2023-12-20T01:48:47.661Z,2.67
2023-12-20T01:51:15.986Z,2.70
2023-12-20T01:53:45.115Z,2.83
2023-12-20T01:56:13.575Z,2.60
2023-12-20T01:58:45.685Z,2.78
2023-12-20T02:01:14.889Z,2.50
2023-12-20T02:03:44.053Z,2.80
2023-12-20T02:06:12.438Z,3.17
2023-12-20T02:08:40.822Z,2.50
2023-12-20T02:11:09.377Z,2.63
2023-12-20T02:13:37.718Z,2.60
2023-12-20T02:16:06.272Z,2.63
2023-12-20T02:18:34.596Z,2.77
2023-12-20T02:21:02.962Z,2.75
2023-12-20T02:23:31.115Z,2.53
2023-12-20T02:25:59.573Z,2.63
2023-12-20T02:28:27.818Z,2.53
2023-12-20T02:30:56.273Z,2.53
2023-12-20T02:33:24.852Z,3.00
2023-12-20T02:35:54.392Z,2.80
2023-12-20T02:38:22.630Z,2.75
2023-12-20T02:40:51.146Z,2.70
2023-12-20T02:43:19.569Z,2.97
2023-12-20T02:45:47.852Z,2.90
2023-12-20T02:48:16.054Z,2.80
2023-12-20T02:50:44.548Z,2.83
2023-12-20T02:53:12.717Z,2.60
2023-12-20T02:55:41.184Z,2.57
2023-12-20T02:58:09.773Z,2.60
2023-12-20T03:00:38.231Z,2.60
2023-12-20T03:03:06.544Z,2.25
2023-12-20T03:05:35.708Z,2.50
2023-12-20T03:08:03.833Z,2.20
2023-12-20T03:10:32.367Z,2.40
2023-12-20T03:13:00.851Z,2.38
2023-12-20T03:15:29.261Z,2.28
2023-12-20T03:17:57.409Z,2.35
2023-12-20T03:20:25.652Z,2.40
2023-12-20T03:22:53.968Z,2.25
2023-12-20T03:25:22.636Z,2.40
2023-12-20T03:27:51.111Z,2.28
2023-12-20T03:30:19.204Z,2.20
2023-12-20T03:32:47.843Z,2.43
2023-12-20T03:35:17.171Z,2.20
2023-12-20T03:37:45.505Z,2.55
2023-12-20T03:40:13.858Z,2.40
2023-12-20T03:42:42.297Z,2.20
2023-12-20T03:45:10.975Z,2.27
2023-12-20T03:47:39.208Z,2.38
2023-12-20T03:50:08.039Z,2.40
2023-12-20T03:52:36.089Z,2.53
2023-12-20T03:55:04.764Z,2.25
2023-12-20T03:57:33.080Z,2.60
2023-12-20T04:00:01.258Z,2.40
2023-12-20T04:02:29.550Z,2.90
2023-12-20T04:04:57.876Z,2.60
2023-12-20T04:07:29.173Z,2.90
2023-12-20T04:09:57.741Z,2.87
2023-12-20T04:12:26.393Z,2.70
2023-12-20T04:14:54.743Z,2.80
2023-12-20T04:17:24.355Z,2.90
2023-12-20T04:19:53.097Z,2.90
2023-12-20T04:22:21.541Z,2.80
2023-12-20T04:24:50.032Z,2.55
2023-12-20T04:27:18.082Z,2.50
2023-12-20T04:29:46.555Z,3.00
2023-12-20T04:32:14.721Z,2.63
2023-12-20T04:34:45.836Z,2.67
2023-12-20T04:37:15.307Z,2.65
2023-12-20T04:39:44.001Z,2.60
2023-12-20T04:42:12.183Z,2.40
2023-12-20T04:44:40.347Z,2.40
2023-12-20T04:47:08.724Z,2.70
2023-12-20T04:49:36.992Z,2.55
2023-12-20T04:52:05.693Z,2.70
2023-12-20T04:54:34.151Z,2.60
2023-12-20T04:57:02.521Z,3.17
2023-12-20T04:59:30.783Z,2.40
2023-12-20T05:01:59.340Z,2.35
2023-12-20T05:04:28.084Z,2.45
2023-12-20T05:06:56.554Z,1.83
2023-12-20T05:09:25.368Z,2.20
2023-12-20T05:11:53.841Z,2.27
2023-12-20T05:14:22.199Z,1.90
2023-12-20T05:16:50.691Z,2.15
2023-12-20T05:19:18.803Z,2.10
2023-12-20T05:21:47.244Z,2.20
2023-12-20T05:24:16.064Z,1.77
2023-12-20T05:26:44.430Z,2.08
2023-12-20T05:29:14.279Z,2.10
2023-12-20T05:31:43.243Z,2.75
2023-12-20T05:34:16.295Z,2.20
2023-12-20T05:36:49.108Z,2.10
2023-12-20T05:39:19.309Z,2.30
2023-12-20T05:41:52.994Z,2.25
2023-12-20T05:44:26.017Z,2.17
2023-12-20T05:46:54.826Z,1.88
2023-12-20T05:49:23.651Z,2.20
2023-12-20T05:51:52.881Z,2.28
2023-12-20T05:54:21.003Z,2.20
2023-12-20T05:56:49.235Z,2.00
2023-12-20T05:59:17.271Z,2.10
2023-12-20T06:01:45.695Z,2.40
2023-12-20T06:04:14.268Z,2.20
2023-12-20T06:06:43.916Z,2.10
2023-12-20T06:09:12.827Z,2.10
2023-12-20T06:11:40.963Z,3.17
2023-12-20T06:14:09.298Z,4.07
2023-12-20T06:16:37.586Z,5.10
2023-12-20T06:19:05.980Z,6.90
2023-12-20T06:21:34.633Z,9.48
2023-12-20T06:24:03.336Z,14.57
2023-12-20T06:26:32.146Z,18.43
2023-12-20T06:29:00.651Z,21.33
2023-12-20T06:31:32.643Z,22.33
2023-12-20T06:34:01.676Z,21.40
2023-12-20T06:36:31.524Z,17.73
2023-12-20T06:38:59.783Z,15.60
2023-12-20T06:41:28.069Z,12.23
2023-12-20T06:43:56.399Z,12.35
2023-12-20T06:46:24.709Z,11.75
2023-12-20T06:48:52.910Z,12.30
2023-12-20T06:51:21.731Z,11.47
2023-12-20T06:53:50.449Z,8.48
2023-12-20T06:56:19.849Z,6.93
2023-12-20T06:58:49.544Z,5.82
2023-12-20T07:01:19.433Z,4.55
2023-12-20T07:03:47.923Z,3.40
2023-12-20T07:06:18.012Z,3.25
2023-12-20T07:08:46.954Z,3.10
2023-12-20T07:11:15.507Z,2.80
2023-12-20T07:13:44.156Z,2.75
2023-12-20T07:16:12.598Z,2.90
2023-12-20T07:18:41.001Z,2.60
2023-12-20T07:21:09.852Z,2.70
2023-12-20T07:23:38.498Z,2.33
2023-12-20T07:26:06.964Z,2.70
2023-12-20T07:28:35.324Z,2.60
2023-12-20T07:31:03.824Z,2.47
2023-12-20T07:33:38.906Z,2.50
2023-12-20T07:36:09.472Z,2.40
2023-12-20T07:38:37.559Z,2.90
2023-12-20T07:41:06.347Z,3.20
2023-12-20T07:43:34.713Z,3.20
2023-12-20T07:46:09.758Z,3.45
2023-12-20T07:48:38.206Z,3.30
2023-12-20T07:51:11.192Z,3.60
2023-12-20T07:53:40.519Z,3.77
2023-12-20T07:56:18.174Z,3.67
2023-12-20T07:58:52.327Z,3.80
2023-12-20T08:01:23.269Z,4.00
2023-12-20T08:03:52.869Z,3.80
2023-12-20T08:06:22.252Z,4.80
2023-12-20T08:08:55.859Z,4.10
2023-12-20T08:11:31.507Z,4.20
2023-12-20T08:14:02.608Z,5.68
2023-12-20T08:16:32.030Z,5.85
2023-12-20T08:19:00.402Z,5.03
2023-12-20T08:21:29.042Z,4.72
2023-12-20T08:23:57.729Z,4.70
2023-12-20T08:26:26.195Z,3.83
2023-12-20T08:28:54.663Z,3.80
2023-12-20T08:31:23.340Z,3.93
2023-12-20T08:33:52.194Z,4.32
2023-12-20T08:36:24.162Z,3.75
2023-12-20T08:38:52.452Z,4.10
2023-12-20T08:41:21.921Z,3.50
2023-12-20T08:43:50.243Z,3.27
2023-12-20T08:46:18.328Z,3.03
2023-12-20T08:48:46.987Z,3.20
2023-12-20T08:51:15.809Z,2.97
2023-12-20T08:53:46.835Z,2.50
2023-12-20T08:56:14.932Z,2.87
2023-12-20T08:58:43.656Z,3.10
2023-12-20T09:01:12.378Z,2.90
2023-12-20T09:03:41.575Z,2.60
2023-12-20T09:06:09.840Z,2.70
2023-12-20T09:08:37.967Z,2.20
2023-12-20T09:11:05.940Z,2.95
2023-12-20T09:13:34.594Z,2.38
2023-12-20T09:16:02.987Z,2.25
2023-12-20T09:18:31.234Z,2.90
2023-12-20T09:20:59.455Z,2.78
2023-12-20T09:23:27.371Z,2.50
2023-12-20T09:25:57.922Z,2.35
2023-12-20T09:28:27.088Z,2.78
2023-12-20T09:30:55.300Z,2.63
2023-12-20T09:33:23.500Z,3.05
2023-12-20T09:35:51.906Z,2.90
2023-12-20T09:38:20.216Z,2.90
2023-12-20T09:40:48.190Z,2.45
2023-12-20T09:43:17.651Z,3.03
2023-12-20T09:45:48.032Z,2.65
2023-12-20T09:48:21.422Z,2.47
2023-12-20T09:50:53.489Z,2.60
2023-12-20T09:53:25.060Z,2.67
2023-12-20T09:55:54.169Z,2.83
2023-12-20T09:58:22.187Z,2.90
2023-12-20T10:00:51.061Z,3.13
2023-12-20T10:03:19.672Z,3.17
2023-12-20T10:05:51.104Z,3.03
2023-12-20T10:08:19.696Z,3.20
2023-12-20T10:10:48.719Z,2.95
2023-12-20T10:13:17.542Z,3.43
2023-12-20T10:15:45.615Z,3.60
2023-12-20T10:18:14.689Z,3.17
2023-12-20T10:20:44.741Z,3.20
2023-12-20T10:23:14.011Z,3.30
2023-12-20T10:25:43.266Z,3.30
2023-12-20T10:28:12.812Z,3.58
2023-12-20T10:30:42.350Z,3.70
2023-12-20T10:33:11.821Z,3.33
2023-12-20T10:35:44.024Z,3.67
2023-12-20T10:38:15.538Z,3.60
2023-12-20T10:40:44.578Z,3.88
2023-12-20T10:43:12.944Z,3.78
2023-12-20T10:45:41.126Z,3.90
2023-12-20T10:48:09.604Z,3.78
2023-12-20T10:50:40.228Z,3.87
2023-12-20T10:53:08.939Z,3.65
2023-12-20T10:55:37.320Z,4.10
2023-12-20T10:58:12.671Z,4.05
2023-12-20T11:00:46.254Z,4.10
2023-12-20T11:03:15.051Z,3.83
2023-12-20T11:05:52.847Z,3.80
2023-12-20T11:08:29.839Z,4.13
2023-12-20T11:11:07.143Z,4.32
2023-12-20T11:13:38.561Z,5.75
2023-12-20T11:16:07.138Z,4.30
2023-12-20T11:18:35.718Z,4.50
2023-12-20T11:21:04.880Z,5.20
2023-12-20T11:23:36.288Z,5.00
2023-12-20T11:26:05.396Z,4.50
2023-12-20T11:28:33.921Z,4.40
2023-12-20T11:33:50.494Z,4.70
2023-12-20T11:36:23.359Z,4.15
2023-12-20T11:38:56.829Z,4.05
2023-12-20T11:41:25.999Z,4.23
2023-12-20T11:43:56.425Z,3.97
2023-12-20T11:46:25.431Z,4.28
2023-12-20T11:48:54.014Z,4.05
2023-12-20T11:51:22.920Z,4.85
2023-12-20T11:53:55.059Z,4.10
2023-12-20T11:56:23.483Z,4.18
2023-12-20T11:58:51.969Z,4.35
2023-12-20T12:01:22.714Z,4.50
2023-12-20T12:03:51.094Z,4.63
2023-12-20T12:06:19.671Z,4.40
2023-12-20T12:08:48.002Z,4.88
2023-12-20T12:11:16.288Z,4.63
2023-12-20T12:13:44.749Z,4.53
2023-12-20T12:16:12.858Z,4.68
2023-12-20T12:18:45.109Z,3.87
2023-12-20T12:21:23.002Z,4.60
2023-12-20T12:23:51.555Z,3.80
2023-12-20T12:26:19.807Z,3.80
2023-12-20T12:28:48.826Z,3.58
2023-12-20T12:31:17.564Z,3.43
2023-12-20T12:33:48.255Z,3.20
2023-12-20T12:36:19.235Z,3.60
2023-12-20T12:38:47.383Z,3.42
2023-12-20T12:41:17.004Z,3.55
2023-12-20T12:43:45.778Z,3.40
2023-12-20T12:46:14.473Z,3.38
2023-12-20T12:48:45.043Z,3.30
2023-12-20T12:51:15.387Z,3.00
2023-12-20T12:53:43.914Z,3.28
2023-12-20T12:56:12.317Z,3.47
2023-12-20T12:58:40.525Z,3.13
2023-12-20T13:01:08.931Z,3.38
2023-12-20T13:03:37.737Z,3.00
2023-12-20T13:06:07.816Z,3.00
2023-12-20T13:08:35.885Z,2.90
2023-12-20T13:11:05.829Z,2.60
2023-12-20T13:13:34.243Z,2.60
2023-12-20T13:16:02.543Z,2.88
2023-12-20T13:18:30.925Z,2.58
2023-12-20T13:20:59.709Z,2.80
2023-12-20T13:23:27.945Z,2.90
2023-12-20T13:25:56.791Z,2.60
2023-12-20T13:28:25.006Z,3.10
2023-12-20T13:30:53.956Z,2.63
2023-12-20T13:33:23.065Z,2.95
2023-12-20T13:35:51.821Z,2.80
2023-12-20T13:38:20.530Z,2.92
2023-12-20T13:40:48.822Z,3.05
2023-12-20T13:43:22.305Z,3.10
2023-12-20T13:45:50.719Z,3.00
2023-12-20T13:48:19.013Z,3.10
2023-12-20T13:50:47.642Z,2.80
2023-12-20T13:53:15.759Z,3.22
2023-12-20T13:55:44.156Z,3.10
2023-12-20T13:58:12.583Z,2.95
2023-12-20T14:00:41.214Z,3.23
2023-12-20T14:03:11.012Z,3.20
2023-12-20T14:05:39.400Z,3.17
2023-12-20T14:08:09.628Z,3.38
2023-12-20T14:10:38.106Z,3.97
2023-12-20T14:13:07.091Z,4.07
2023-12-20T14:15:38.808Z,3.72
2023-12-20T14:18:08.797Z,3.35
2023-12-20T14:20:37.417Z,3.40
2023-12-20T14:23:06.287Z,3.67
2023-12-20T14:25:43.019Z,3.60
2023-12-20T14:28:18.979Z,3.38
2023-12-20T14:30:47.331Z,3.63
2023-12-20T14:33:16.160Z,3.88
2023-12-20T14:35:46.218Z,3.63
2023-12-20T14:38:17.239Z,3.50
2023-12-20T14:40:45.528Z,3.90
2023-12-20T14:43:13.780Z,3.40
2023-12-20T14:45:42.195Z,3.60
2023-12-20T14:48:10.452Z,4.40
2023-12-20T14:50:39.235Z,3.73
2023-12-20T14:53:07.405Z,4.43
2023-12-20T14:55:35.858Z,3.70
2023-12-20T14:58:04.349Z,3.75
2023-12-20T15:00:33.224Z,3.72
2023-12-20T15:03:05.792Z,4.10
2023-12-20T15:05:34.118Z,3.90
2023-12-20T15:08:02.238Z,4.03
2023-12-20T15:10:32.218Z,3.80
2023-12-20T15:13:00.595Z,4.35
2023-12-20T15:15:30.396Z,4.30
2023-12-20T15:17:58.710Z,5.05
2023-12-20T15:20:26.743Z,4.88
2023-12-20T15:22:56.679Z,4.93
2023-12-20T15:25:24.896Z,4.93
2023-12-20T15:27:54.831Z,5.33
2023-12-20T15:30:23.317Z,6.00
2023-12-20T15:32:51.510Z,6.40
2023-12-20T15:35:19.967Z,6.43
2023-12-20T15:37:48.329Z,6.75
2023-12-20T15:40:16.979Z,7.57
2023-12-20T15:42:45.606Z,7.97
2023-12-20T15:45:13.960Z,7.93
2023-12-20T15:47:41.993Z,8.13
2023-12-20T15:50:10.579Z,8.45
2023-12-20T15:52:39.368Z,7.77
2023-12-20T15:55:09.227Z,8.50
2023-12-20T15:57:45.960Z,7.78
2023-12-20T16:00:21.897Z,8.60
2023-12-20T16:02:49.980Z,7.93
2023-12-20T16:05:18.614Z,7.57
2023-12-20T16:07:47.315Z,8.48
2023-12-20T16:10:16.302Z,7.63
2023-12-20T16:12:44.501Z,8.05
2023-12-20T16:15:12.728Z,8.95
2023-12-20T16:17:40.951Z,11.27
2023-12-20T16:20:10.769Z,14.23
2023-12-20T16:22:39.007Z,9.93
2023-12-20T16:25:07.463Z,10.55
2023-12-20T16:27:35.673Z,10.20
2023-12-20T16:30:04.061Z,9.93
2023-12-20T16:32:32.662Z,10.77
2023-12-20T16:35:03.104Z,10.18
2023-12-20T16:37:31.799Z,9.55
2023-12-20T16:40:00.241Z,8.93
2023-12-20T16:42:28.500Z,8.98
2023-12-20T16:44:56.795Z,8.83
2023-12-20T16:47:25.200Z,8.65
2023-12-20T16:49:53.528Z,8.77
2023-12-20T16:52:21.847Z,8.50
2023-12-20T16:54:50.141Z,8.95
2023-12-20T16:57:20.056Z,8.60
2023-12-20T16:59:48.037Z,9.20
2023-12-20T17:02:16.612Z,9.77
2023-12-20T17:04:44.847Z,9.80
2023-12-20T17:07:13.179Z,9.65
2023-12-20T17:09:41.817Z,9.47
2023-12-20T17:12:10.173Z,10.38
2023-12-20T17:14:38.287Z,10.52
2023-12-20T17:17:07.130Z,10.57
2023-12-20T17:19:35.416Z,10.63
2023-12-20T17:22:07.331Z,9.63
2023-12-20T17:24:35.628Z,9.75
2023-12-20T17:27:03.830Z,10.10
2023-12-20T17:29:32.069Z,10.10
2023-12-20T17:32:00.453Z,9.68
2023-12-20T17:34:28.896Z,9.80
2023-12-20T17:36:57.320Z,9.80
2023-12-20T17:39:25.871Z,10.75
2023-12-20T17:41:54.946Z,10.95
2023-12-20T17:44:23.893Z,10.95
2023-12-20T17:46:52.033Z,11.03
2023-12-20T17:49:25.366Z,11.07
2023-12-20T17:51:55.047Z,11.38
2023-12-20T17:54:24.508Z,11.10
2023-12-20T17:56:54.667Z,10.10
2023-12-20T17:59:23.061Z,10.50
2023-12-20T18:01:51.256Z,10.50
2023-12-20T18:04:22.164Z,10.15
2023-12-20T18:06:51.197Z,10.68
2023-12-20T18:09:19.370Z,9.82
2023-12-20T18:11:48.320Z,9.00
2023-12-20T18:14:16.809Z,8.95
2023-12-20T18:16:45.574Z,9.13
2023-12-20T18:19:14.413Z,8.45
2023-12-20T18:21:42.760Z,7.65
2023-12-20T18:24:11.633Z,8.63
2023-12-20T18:26:40.948Z,7.90
2023-12-20T18:29:09.346Z,7.38
2023-12-20T18:31:37.941Z,7.10
2023-12-20T18:34:07.913Z,7.50
2023-12-20T18:36:36.562Z,7.77
2023-12-20T18:39:05.720Z,8.40
2023-12-20T18:41:34.086Z,9.05
2023-12-20T18:44:03.232Z,10.10
2023-12-20T18:46:31.519Z,10.00
2023-12-20T18:48:59.987Z,9.77
2023-12-20T18:51:28.703Z,10.55
2023-12-20T18:53:57.350Z,9.95
2023-12-20T18:56:25.610Z,9.35
2023-12-20T18:58:54.030Z,8.82
2023-12-20T19:01:22.417Z,8.67
2023-12-20T19:03:51.034Z,8.93
2023-12-20T19:06:19.321Z,9.50
2023-12-20T19:08:51.651Z,9.25
2023-12-20T19:11:20.438Z,10.27
2023-12-20T19:13:48.663Z,9.50
2023-12-20T19:16:17.471Z,10.18
2023-12-20T19:18:46.086Z,9.82
2023-12-20T19:21:14.572Z,9.65
2023-12-20T19:23:44.701Z,9.65
2023-12-20T19:26:13.840Z,9.53
2023-12-20T19:28:45.445Z,11.95
2023-12-20T19:31:14.923Z,12.05
2023-12-20T19:33:43.620Z,12.20
2023-12-20T19:36:15.698Z,11.45
2023-12-20T19:38:46.572Z,11.97
2023-12-20T19:41:15.636Z,12.05
2023-12-20T19:43:43.764Z,12.70
2023-12-20T19:46:13.115Z,12.05
2023-12-20T19:48:41.425Z,11.85
2023-12-20T19:51:09.823Z,11.70
2023-12-20T19:53:38.021Z,10.98
2023-12-20T19:56:06.637Z,12.57
2023-12-20T19:58:35.023Z,11.23
2023-12-20T20:01:03.523Z,10.43
2023-12-20T20:03:32.159Z,10.93
2023-12-20T20:06:00.597Z,10.07
2023-12-20T20:08:29.052Z,9.75
2023-12-20T20:10:57.408Z,9.75
2023-12-20T20:13:25.913Z,9.65
2023-12-20T20:15:54.386Z,9.10
2023-12-20T20:18:23.082Z,9.10
2023-12-20T20:20:51.479Z,8.93
2023-12-20T20:23:19.939Z,8.98
2023-12-20T20:25:48.511Z,9.07
2023-12-20T20:28:17.937Z,8.90
2023-12-20T20:30:46.322Z,9.70
2023-12-20T20:33:14.682Z,8.80
2023-12-20T20:35:43.093Z,8.45
2023-12-20T20:38:11.396Z,8.82
2023-12-20T20:40:39.869Z,9.30
2023-12-20T20:43:08.198Z,8.88
2023-12-20T20:45:36.678Z,7.93
2023-12-20T20:48:16.056Z,8.35
2023-12-20T20:50:53.874Z,8.10
2023-12-20T20:53:23.972Z,7.67
2023-12-20T20:55:52.448Z,7.65
2023-12-20T20:58:20.757Z,7.90
2023-12-20T21:00:49.491Z,7.30
2023-12-20T21:03:17.759Z,7.30
2023-12-20T21:05:46.157Z,7.37
2023-12-20T21:08:14.745Z,7.65
2023-12-20T21:10:42.976Z,7.20
2023-12-20T21:13:11.663Z,7.72
2023-12-20T21:15:39.990Z,7.70
2023-12-20T21:18:08.565Z,7.53
2023-12-20T21:20:36.914Z,7.45
2023-12-20T21:23:10.379Z,7.45
2023-12-20T21:25:38.971Z,8.10
2023-12-20T21:28:07.774Z,8.60
2023-12-20T21:30:37.755Z,8.20
2023-12-20T21:33:06.635Z,8.60
2023-12-20T21:35:36.341Z,9.52
2023-12-20T21:38:05.509Z,8.65
2023-12-20T21:40:33.932Z,9.88
2023-12-20T21:43:02.243Z,10.23
2023-12-20T21:45:30.447Z,10.65
2023-12-20T21:47:59.307Z,9.70
2023-12-20T21:50:27.574Z,10.45
2023-12-20T21:52:56.072Z,10.27
2023-12-20T21:55:24.405Z,10.43
2023-12-20T21:57:52.710Z,10.68
2023-12-20T22:00:21.157Z,10.65
2023-12-20T22:02:49.923Z,9.60
2023-12-20T22:05:18.199Z,9.50
2023-12-20T22:07:48.138Z,9.23
2023-12-20T22:10:17.309Z,8.75
2023-12-20T22:12:45.585Z,8.32
2023-12-20T22:15:14.305Z,8.93
2023-12-20T22:17:43.476Z,8.32
2023-12-20T22:20:13.164Z,8.40
2023-12-20T22:22:41.836Z,7.80
2023-12-20T22:25:10.257Z,8.20
2023-12-20T22:27:38.752Z,8.35
2023-12-20T22:30:07.464Z,7.65
2023-12-20T22:32:35.934Z,7.30
2023-12-20T22:35:04.670Z,6.90
2023-12-20T22:37:33.762Z,7.85
2023-12-20T22:40:02.161Z,7.50
2023-12-20T22:42:30.579Z,7.28
2023-12-20T22:44:58.810Z,7.65
2023-12-20T22:47:27.279Z,7.77
2023-12-20T22:49:55.432Z,7.90
2023-12-20T22:52:23.886Z,7.60
2023-12-20T22:54:52.233Z,7.25
2023-12-20T22:57:21.198Z,7.18
2023-12-20T22:59:49.459Z,7.17
2023-12-20T23:02:18.023Z,7.03
2023-12-20T23:04:47.006Z,7.32
2023-12-20T23:07:15.836Z,7.25
2023-12-20T23:09:44.230Z,7.10
2023-12-20T23:12:12.519Z,6.70
2023-12-20T23:14:40.766Z,6.88
2023-12-20T23:17:09.062Z,7.05
2023-12-20T23:19:37.340Z,7.43
2023-12-20T23:22:05.750Z,7.78
2023-12-20T23:24:33.930Z,7.13
2023-12-20T23:27:02.270Z,7.33
2023-12-20T23:29:30.804Z,6.88
2023-12-20T23:31:59.510Z,7.45
2023-12-20T23:34:27.711Z,7.18
2023-12-20T23:36:56.397Z,6.63
2023-12-20T23:39:24.745Z,6.67
2023-12-20T23:41:53.380Z,6.50
2023-12-20T23:44:21.562Z,6.80
2023-12-20T23:46:50.174Z,6.40
2023-12-20T23:49:19.089Z,6.38
2023-12-20T23:51:47.662Z,6.43
2023-12-20T23:54:16.320Z,6.03
2023-12-20T23:56:44.885Z,6.20
2023-12-20T23:59:13.231Z,5.97
